sensor_id;sensor_type;location;lat;lon;timestamp;P1;durP1;ratioP1;P2;durP2;ratioP2
20122;SDS011;10222;50.848;4.336;2023-05-29T00:01:11;7.50;;;3.77;;
20122;SDS011;10222;50.848;4.336;2023-05-29T00:03:37;7.90;;;3.43;;
20122;SDS011;10222;50.848;4.336;2023-05-29T00:06:04;7.47;;;3.97;;
20122;SDS011;10222;50.848;4.336;2023-05-29T00:08:31;8.27;;;3.33;;
20122;SDS011;10222;50.848;4.336;2023-05-29T00:10:58;6.30;;;3.10;;
20122;SDS011;10222;50.848;4.336;2023-05-29T00:13:25;10.43;;;3.67;;
20122;SDS011;10222;50.848;4.336;2023-05-29T00:15:52;8.73;;;3.83;;
20122;SDS011;10222;50.848;4.336;2023-05-29T00:18:18;10.60;;;4.00;;
20122;SDS011;10222;50.848;4.336;2023-05-29T00:20:44;11.20;;;4.13;;
20122;SDS011;10222;50.848;4.336;2023-05-29T00:23:10;7.67;;;3.80;;
20122;SDS011;10222;50.848;4.336;2023-05-29T00:25:36;6.90;;;3.33;;
20122;SDS011;10222;50.848;4.336;2023-05-29T00:28:02;11.20;;;3.57;;
20122;SDS011;10222;50.848;4.336;2023-05-29T00:30:28;7.63;;;4.57;;
20122;SDS011;10222;50.848;4.336;2023-05-29T00:32:54;5.67;;;3.40;;
20122;SDS011;10222;50.848;4.336;2023-05-29T00:35:21;10.07;;;4.10;;
20122;SDS011;10222;50.848;4.336;2023-05-29T00:37:47;6.53;;;3.30;;
20122;SDS011;10222;50.848;4.336;2023-05-29T00:40:13;9.10;;;4.07;;
20122;SDS011;10222;50.848;4.336;2023-05-29T00:42:39;7.90;;;3.67;;
20122;SDS011;10222;50.848;4.336;2023-05-29T00:45:05;12.47;;;3.93;;
20122;SDS011;10222;50.848;4.336;2023-05-29T00:47:33;7.37;;;3.80;;
20122;SDS011;10222;50.848;4.336;2023-05-29T00:49:59;9.70;;;4.13;;
20122;SDS011;10222;50.848;4.336;2023-05-29T00:52:25;9.70;;;3.80;;
20122;SDS011;10222;50.848;4.336;2023-05-29T00:54:51;9.23;;;3.60;;
20122;SDS011;10222;50.848;4.336;2023-05-29T00:57:18;12.10;;;4.17;;
20122;SDS011;10222;50.848;4.336;2023-05-29T00:59:46;8.97;;;3.43;;
20122;SDS011;10222;50.848;4.336;2023-05-29T01:02:13;8.17;;;3.23;;
20122;SDS011;10222;50.848;4.336;2023-05-29T01:04:41;11.77;;;3.63;;
20122;SDS011;10222;50.848;4.336;2023-05-29T01:07:07;8.77;;;4.30;;
20122;SDS011;10222;50.848;4.336;2023-05-29T01:09:34;10.20;;;3.67;;
20122;SDS011;10222;50.848;4.336;2023-05-29T01:12:14;6.00;;;3.90;;
20122;SDS011;10222;50.848;4.336;2023-05-29T01:17:15;8.10;;;3.83;;
20122;SDS011;10222;50.848;4.336;2023-05-29T01:19:58;7.57;;;3.70;;
20122;SDS011;10222;50.848;4.336;2023-05-29T01:25:18;8.97;;;3.20;;
20122;SDS011;10222;50.848;4.336;2023-05-29T01:27:46;10.57;;;3.73;;
20122;SDS011;10222;50.848;4.336;2023-05-29T01:30:15;8.73;;;3.43;;
20122;SDS011;10222;50.848;4.336;2023-05-29T01:32:41;6.73;;;3.50;;
20122;SDS011;10222;50.848;4.336;2023-05-29T01:35:08;8.53;;;3.70;;
20122;SDS011;10222;50.848;4.336;2023-05-29T01:37:35;8.17;;;3.67;;
20122;SDS011;10222;50.848;4.336;2023-05-29T01:40:01;5.23;;;3.17;;
20122;SDS011;10222;50.848;4.336;2023-05-29T01:42:29;9.40;;;3.83;;
20122;SDS011;10222;50.848;4.336;2023-05-29T01:44:55;7.17;;;3.67;;
20122;SDS011;10222;50.848;4.336;2023-05-29T01:47:22;8.77;;;3.33;;
20122;SDS011;10222;50.848;4.336;2023-05-29T01:49:49;7.10;;;4.17;;
20122;SDS011;10222;50.848;4.336;2023-05-29T01:52:17;6.87;;;3.60;;
20122;SDS011;10222;50.848;4.336;2023-05-29T01:54:43;10.23;;;3.70;;
20122;SDS011;10222;50.848;4.336;2023-05-29T01:57:11;8.43;;;3.63;;
20122;SDS011;10222;50.848;4.336;2023-05-29T01:59:37;10.30;;;3.70;;
20122;SDS011;10222;50.848;4.336;2023-05-29T02:02:07;7.40;;;3.33;;
20122;SDS011;10222;50.848;4.336;2023-05-29T02:04:33;6.20;;;3.37;;
20122;SDS011;10222;50.848;4.336;2023-05-29T02:06:59;10.10;;;3.80;;
20122;SDS011;10222;50.848;4.336;2023-05-29T02:09:25;7.23;;;4.03;;
20122;SDS011;10222;50.848;4.336;2023-05-29T02:11:51;4.83;;;3.40;;
20122;SDS011;10222;50.848;4.336;2023-05-29T02:14:17;7.13;;;3.27;;
20122;SDS011;10222;50.848;4.336;2023-05-29T02:16:43;6.83;;;3.40;;
20122;SDS011;10222;50.848;4.336;2023-05-29T02:19:10;8.63;;;3.33;;
20122;SDS011;10222;50.848;4.336;2023-05-29T02:21:37;8.30;;;3.87;;
20122;SDS011;10222;50.848;4.336;2023-05-29T02:24:05;5.57;;;3.03;;
20122;SDS011;10222;50.848;4.336;2023-05-29T02:26:31;6.03;;;3.70;;
20122;SDS011;10222;50.848;4.336;2023-05-29T02:28:57;5.33;;;2.90;;
20122;SDS011;10222;50.848;4.336;2023-05-29T02:31:23;11.00;;;4.10;;
20122;SDS011;10222;50.848;4.336;2023-05-29T02:33:49;6.13;;;3.33;;
20122;SDS011;10222;50.848;4.336;2023-05-29T02:36:15;6.63;;;2.80;;
20122;SDS011;10222;50.848;4.336;2023-05-29T02:38:42;7.67;;;2.80;;
20122;SDS011;10222;50.848;4.336;2023-05-29T02:41:08;6.57;;;2.80;;
20122;SDS011;10222;50.848;4.336;2023-05-29T02:43:34;10.17;;;3.07;;
20122;SDS011;10222;50.848;4.336;2023-05-29T02:46:00;6.30;;;2.77;;
20122;SDS011;10222;50.848;4.336;2023-05-29T02:48:26;6.10;;;2.73;;
20122;SDS011;10222;50.848;4.336;2023-05-29T02:50:52;8.87;;;2.73;;
20122;SDS011;10222;50.848;4.336;2023-05-29T02:53:18;7.20;;;2.80;;
20122;SDS011;10222;50.848;4.336;2023-05-29T02:55:44;8.53;;;2.70;;
20122;SDS011;10222;50.848;4.336;2023-05-29T02:58:11;7.37;;;2.17;;
20122;SDS011;10222;50.848;4.336;2023-05-29T03:00:38;6.40;;;2.70;;
20122;SDS011;10222;50.848;4.336;2023-05-29T03:03:04;6.97;;;2.50;;
20122;SDS011;10222;50.848;4.336;2023-05-29T03:05:30;5.70;;;2.50;;
20122;SDS011;10222;50.848;4.336;2023-05-29T03:07:56;10.60;;;2.70;;
20122;SDS011;10222;50.848;4.336;2023-05-29T03:10:23;7.27;;;2.37;;
20122;SDS011;10222;50.848;4.336;2023-05-29T03:12:50;5.60;;;2.40;;
20122;SDS011;10222;50.848;4.336;2023-05-29T03:15:16;7.33;;;2.03;;
20122;SDS011;10222;50.848;4.336;2023-05-29T03:17:45;7.37;;;2.70;;
20122;SDS011;10222;50.848;4.336;2023-05-29T03:20:11;6.50;;;2.07;;
20122;SDS011;10222;50.848;4.336;2023-05-29T03:22:40;5.50;;;2.27;;
20122;SDS011;10222;50.848;4.336;2023-05-29T03:25:06;7.43;;;2.40;;
20122;SDS011;10222;50.848;4.336;2023-05-29T03:27:32;3.87;;;1.80;;
20122;SDS011;10222;50.848;4.336;2023-05-29T03:29:58;7.57;;;1.83;;
20122;SDS011;10222;50.848;4.336;2023-05-29T03:32:25;6.20;;;1.70;;
20122;SDS011;10222;50.848;4.336;2023-05-29T03:34:51;8.17;;;2.07;;
20122;SDS011;10222;50.848;4.336;2023-05-29T03:37:17;7.70;;;2.40;;
20122;SDS011;10222;50.848;4.336;2023-05-29T03:39:43;7.87;;;2.30;;
20122;SDS011;10222;50.848;4.336;2023-05-29T03:42:09;4.93;;;2.20;;
20122;SDS011;10222;50.848;4.336;2023-05-29T03:44:35;8.03;;;2.50;;
20122;SDS011;10222;50.848;4.336;2023-05-29T03:47:01;7.97;;;2.13;;
20122;SDS011;10222;50.848;4.336;2023-05-29T03:49:27;5.23;;;1.67;;
20122;SDS011;10222;50.848;4.336;2023-05-29T03:51:53;7.80;;;2.20;;
20122;SDS011;10222;50.848;4.336;2023-05-29T03:54:19;5.57;;;1.77;;
20122;SDS011;10222;50.848;4.336;2023-05-29T03:56:45;3.70;;;1.40;;
20122;SDS011;10222;50.848;4.336;2023-05-29T03:59:11;5.20;;;2.10;;
20122;SDS011;10222;50.848;4.336;2023-05-29T04:01:37;10.57;;;2.50;;
20122;SDS011;10222;50.848;4.336;2023-05-29T04:04:03;5.50;;;1.93;;
20122;SDS011;10222;50.848;4.336;2023-05-29T04:06:30;5.13;;;1.80;;
20122;SDS011;10222;50.848;4.336;2023-05-29T04:08:57;5.23;;;1.80;;
20122;SDS011;10222;50.848;4.336;2023-05-29T04:11:23;5.87;;;1.50;;
20122;SDS011;10222;50.848;4.336;2023-05-29T04:13:49;6.57;;;2.00;;
20122;SDS011;10222;50.848;4.336;2023-05-29T04:16:16;4.73;;;2.03;;
20122;SDS011;10222;50.848;4.336;2023-05-29T04:18:42;3.80;;;1.63;;
20122;SDS011;10222;50.848;4.336;2023-05-29T04:21:08;7.27;;;2.43;;
20122;SDS011;10222;50.848;4.336;2023-05-29T04:23:36;3.93;;;1.27;;
20122;SDS011;10222;50.848;4.336;2023-05-29T04:26:02;6.93;;;2.27;;
20122;SDS011;10222;50.848;4.336;2023-05-29T04:28:28;5.17;;;1.70;;
20122;SDS011;10222;50.848;4.336;2023-05-29T04:30:55;3.70;;;1.80;;
20122;SDS011;10222;50.848;4.336;2023-05-29T04:33:21;6.27;;;1.57;;
20122;SDS011;10222;50.848;4.336;2023-05-29T04:35:50;6.30;;;1.40;;
20122;SDS011;10222;50.848;4.336;2023-05-29T04:38:16;5.93;;;2.17;;
20122;SDS011;10222;50.848;4.336;2023-05-29T04:40:43;7.43;;;1.23;;
20122;SDS011;10222;50.848;4.336;2023-05-29T04:43:09;4.10;;;1.50;;
20122;SDS011;10222;50.848;4.336;2023-05-29T04:45:35;5.53;;;2.23;;
20122;SDS011;10222;50.848;4.336;2023-05-29T04:48:02;4.47;;;1.80;;
20122;SDS011;10222;50.848;4.336;2023-05-29T04:50:29;3.50;;;1.37;;
20122;SDS011;10222;50.848;4.336;2023-05-29T04:52:57;4.97;;;2.10;;
20122;SDS011;10222;50.848;4.336;2023-05-29T04:55:23;5.17;;;1.37;;
20122;SDS011;10222;50.848;4.336;2023-05-29T04:57:50;4.80;;;1.77;;
20122;SDS011;10222;50.848;4.336;2023-05-29T05:00:16;5.13;;;1.70;;
20122;SDS011;10222;50.848;4.336;2023-05-29T05:02:43;5.13;;;1.77;;
20122;SDS011;10222;50.848;4.336;2023-05-29T05:05:09;3.50;;;1.13;;
20122;SDS011;10222;50.848;4.336;2023-05-29T05:07:36;7.23;;;2.13;;
20122;SDS011;10222;50.848;4.336;2023-05-29T05:10:05;5.43;;;1.67;;
20122;SDS011;10222;50.848;4.336;2023-05-29T05:12:31;8.20;;;1.87;;
20122;SDS011;10222;50.848;4.336;2023-05-29T05:14:57;12.60;;;1.93;;
20122;SDS011;10222;50.848;4.336;2023-05-29T05:17:23;6.63;;;1.60;;
20122;SDS011;10222;50.848;4.336;2023-05-29T05:19:50;8.33;;;1.83;;
20122;SDS011;10222;50.848;4.336;2023-05-29T05:22:19;10.90;;;1.80;;
20122;SDS011;10222;50.848;4.336;2023-05-29T05:24:45;4.50;;;1.77;;
20122;SDS011;10222;50.848;4.336;2023-05-29T05:27:12;5.80;;;1.57;;
20122;SDS011;10222;50.848;4.336;2023-05-29T05:29:39;5.80;;;1.70;;
20122;SDS011;10222;50.848;4.336;2023-05-29T05:32:11;6.73;;;1.67;;
20122;SDS011;10222;50.848;4.336;2023-05-29T05:34:37;6.90;;;2.03;;
20122;SDS011;10222;50.848;4.336;2023-05-29T05:37:03;9.47;;;2.23;;
20122;SDS011;10222;50.848;4.336;2023-05-29T05:39:29;9.13;;;1.67;;
20122;SDS011;10222;50.848;4.336;2023-05-29T05:41:55;9.40;;;1.87;;
20122;SDS011;10222;50.848;4.336;2023-05-29T05:44:21;9.17;;;2.07;;
20122;SDS011;10222;50.848;4.336;2023-05-29T05:46:47;4.90;;;1.80;;
20122;SDS011;10222;50.848;4.336;2023-05-29T05:49:13;6.73;;;1.90;;
20122;SDS011;10222;50.848;4.336;2023-05-29T05:51:39;6.73;;;1.60;;
20122;SDS011;10222;50.848;4.336;2023-05-29T05:54:05;4.90;;;1.40;;
20122;SDS011;10222;50.848;4.336;2023-05-29T05:56:31;10.77;;;2.43;;
20122;SDS011;10222;50.848;4.336;2023-05-29T05:58:57;5.77;;;1.60;;
20122;SDS011;10222;50.848;4.336;2023-05-29T06:01:23;5.23;;;2.10;;
20122;SDS011;10222;50.848;4.336;2023-05-29T06:03:49;11.33;;;2.37;;
20122;SDS011;10222;50.848;4.336;2023-05-29T06:06:15;11.50;;;2.17;;
20122;SDS011;10222;50.848;4.336;2023-05-29T06:08:43;8.37;;;1.90;;
20122;SDS011;10222;50.848;4.336;2023-05-29T06:11:11;6.30;;;2.33;;
20122;SDS011;10222;50.848;4.336;2023-05-29T06:13:37;8.83;;;1.50;;
20122;SDS011;10222;50.848;4.336;2023-05-29T06:16:04;4.07;;;1.50;;
20122;SDS011;10222;50.848;4.336;2023-05-29T06:18:30;2.07;;;1.30;;
20122;SDS011;10222;50.848;4.336;2023-05-29T06:20:56;6.67;;;1.63;;
20122;SDS011;10222;50.848;4.336;2023-05-29T06:23:22;4.57;;;1.63;;
20122;SDS011;10222;50.848;4.336;2023-05-29T06:25:48;6.77;;;1.33;;
20122;SDS011;10222;50.848;4.336;2023-05-29T06:28:14;7.40;;;1.20;;
20122;SDS011;10222;50.848;4.336;2023-05-29T06:30:40;8.70;;;1.87;;
20122;SDS011;10222;50.848;4.336;2023-05-29T06:33:06;6.53;;;1.57;;
20122;SDS011;10222;50.848;4.336;2023-05-29T06:35:32;8.30;;;1.80;;
20122;SDS011;10222;50.848;4.336;2023-05-29T06:37:58;6.70;;;1.80;;
20122;SDS011;10222;50.848;4.336;2023-05-29T06:40:24;7.13;;;2.07;;
20122;SDS011;10222;50.848;4.336;2023-05-29T06:42:50;4.20;;;1.43;;
20122;SDS011;10222;50.848;4.336;2023-05-29T06:45:16;6.30;;;1.40;;
20122;SDS011;10222;50.848;4.336;2023-05-29T06:47:42;6.13;;;1.70;;
20122;SDS011;10222;50.848;4.336;2023-05-29T06:50:09;15.10;;;2.20;;
20122;SDS011;10222;50.848;4.336;2023-05-29T06:52:35;4.97;;;2.20;;
20122;SDS011;10222;50.848;4.336;2023-05-29T06:55:01;6.37;;;1.83;;
20122;SDS011;10222;50.848;4.336;2023-05-29T06:57:27;12.03;;;2.50;;
20122;SDS011;10222;50.848;4.336;2023-05-29T06:59:53;7.47;;;2.00;;
20122;SDS011;10222;50.848;4.336;2023-05-29T07:02:19;6.37;;;1.60;;
20122;SDS011;10222;50.848;4.336;2023-05-29T07:04:45;4.20;;;1.60;;
20122;SDS011;10222;50.848;4.336;2023-05-29T07:07:11;5.83;;;1.73;;
20122;SDS011;10222;50.848;4.336;2023-05-29T07:09:37;8.30;;;1.27;;
20122;SDS011;10222;50.848;4.336;2023-05-29T07:12:04;7.30;;;2.30;;
20122;SDS011;10222;50.848;4.336;2023-05-29T07:14:30;4.70;;;1.57;;
20122;SDS011;10222;50.848;4.336;2023-05-29T07:16:56;7.53;;;2.13;;
20122;SDS011;10222;50.848;4.336;2023-05-29T07:19:22;9.43;;;2.00;;
20122;SDS011;10222;50.848;4.336;2023-05-29T07:21:48;7.47;;;1.60;;
20122;SDS011;10222;50.848;4.336;2023-05-29T07:24:14;6.40;;;1.63;;
20122;SDS011;10222;50.848;4.336;2023-05-29T07:26:40;7.00;;;2.13;;
20122;SDS011;10222;50.848;4.336;2023-05-29T07:29:06;4.93;;;1.40;;
20122;SDS011;10222;50.848;4.336;2023-05-29T07:31:32;6.63;;;1.73;;
20122;SDS011;10222;50.848;4.336;2023-05-29T07:33:59;5.23;;;1.60;;
20122;SDS011;10222;50.848;4.336;2023-05-29T07:38:53;4.40;;;1.53;;
20122;SDS011;10222;50.848;4.336;2023-05-29T07:41:23;6.93;;;2.00;;
20122;SDS011;10222;50.848;4.336;2023-05-29T07:43:49;6.10;;;1.60;;
20122;SDS011;10222;50.848;4.336;2023-05-29T07:46:17;4.60;;;1.33;;
20122;SDS011;10222;50.848;4.336;2023-05-29T07:48:43;8.33;;;1.60;;
20122;SDS011;10222;50.848;4.336;2023-05-29T07:51:11;7.47;;;1.47;;
20122;SDS011;10222;50.848;4.336;2023-05-29T07:53:37;2.87;;;1.10;;
20122;SDS011;10222;50.848;4.336;2023-05-29T07:56:03;5.10;;;1.50;;
20122;SDS011;10222;50.848;4.336;2023-05-29T07:58:29;6.47;;;1.90;;
20122;SDS011;10222;50.848;4.336;2023-05-29T08:00:55;5.80;;;1.57;;
20122;SDS011;10222;50.848;4.336;2023-05-29T08:03:21;5.80;;;1.40;;
20122;SDS011;10222;50.848;4.336;2023-05-29T08:05:48;5.40;;;1.17;;
20122;SDS011;10222;50.848;4.336;2023-05-29T08:08:14;7.93;;;1.43;;
20122;SDS011;10222;50.848;4.336;2023-05-29T08:10:40;5.57;;;2.00;;
20122;SDS011;10222;50.848;4.336;2023-05-29T08:13:06;5.03;;;1.70;;
20122;SDS011;10222;50.848;4.336;2023-05-29T08:15:32;7.80;;;1.77;;
20122;SDS011;10222;50.848;4.336;2023-05-29T08:17:59;6.60;;;1.47;;
20122;SDS011;10222;50.848;4.336;2023-05-29T08:20:25;4.57;;;1.73;;
20122;SDS011;10222;50.848;4.336;2023-05-29T08:22:51;7.57;;;2.00;;
20122;SDS011;10222;50.848;4.336;2023-05-29T08:25:17;5.90;;;1.70;;
20122;SDS011;10222;50.848;4.336;2023-05-29T08:27:43;4.60;;;1.60;;
20122;SDS011;10222;50.848;4.336;2023-05-29T08:30:10;6.13;;;1.40;;
20122;SDS011;10222;50.848;4.336;2023-05-29T08:32:36;4.67;;;1.50;;
20122;SDS011;10222;50.848;4.336;2023-05-29T08:35:02;4.00;;;1.07;;
20122;SDS011;10222;50.848;4.336;2023-05-29T08:37:29;8.43;;;1.90;;
20122;SDS011;10222;50.848;4.336;2023-05-29T08:39:55;9.00;;;1.70;;
20122;SDS011;10222;50.848;4.336;2023-05-29T08:42:26;5.53;;;1.47;;
20122;SDS011;10222;50.848;4.336;2023-05-29T08:44:55;5.43;;;1.73;;
20122;SDS011;10222;50.848;4.336;2023-05-29T08:47:26;5.47;;;2.03;;
20122;SDS011;10222;50.848;4.336;2023-05-29T08:49:52;4.07;;;1.20;;
20122;SDS011;10222;50.848;4.336;2023-05-29T08:52:19;5.40;;;1.67;;
20122;SDS011;10222;50.848;4.336;2023-05-29T08:54:46;7.10;;;1.70;;
20122;SDS011;10222;50.848;4.336;2023-05-29T08:57:12;8.23;;;1.73;;
20122;SDS011;10222;50.848;4.336;2023-05-29T08:59:42;4.30;;;1.50;;
20122;SDS011;10222;50.848;4.336;2023-05-29T09:02:09;5.70;;;2.07;;
20122;SDS011;10222;50.848;4.336;2023-05-29T09:04:35;5.63;;;1.47;;
20122;SDS011;10222;50.848;4.336;2023-05-29T09:07:01;10.40;;;2.10;;
20122;SDS011;10222;50.848;4.336;2023-05-29T09:09:28;7.23;;;1.87;;
20122;SDS011;10222;50.848;4.336;2023-05-29T09:11:54;5.60;;;1.53;;
20122;SDS011;10222;50.848;4.336;2023-05-29T09:17:02;8.50;;;1.87;;
20122;SDS011;10222;50.848;4.336;2023-05-29T09:19:28;6.47;;;1.77;;
20122;SDS011;10222;50.848;4.336;2023-05-29T09:22:01;7.37;;;1.60;;
20122;SDS011;10222;50.848;4.336;2023-05-29T09:24:28;7.90;;;1.70;;
20122;SDS011;10222;50.848;4.336;2023-05-29T09:26:55;7.10;;;1.43;;
20122;SDS011;10222;50.848;4.336;2023-05-29T09:29:21;6.53;;;1.57;;
20122;SDS011;10222;50.848;4.336;2023-05-29T09:31:47;5.77;;;1.80;;
20122;SDS011;10222;50.848;4.336;2023-05-29T09:34:14;5.77;;;1.37;;
20122;SDS011;10222;50.848;4.336;2023-05-29T09:36:40;8.03;;;1.53;;
20122;SDS011;10222;50.848;4.336;2023-05-29T09:39:07;11.27;;;4.00;;
20122;SDS011;10222;50.848;4.336;2023-05-29T09:41:45;5.50;;;1.60;;
20122;SDS011;10222;50.848;4.336;2023-05-29T09:44:13;6.03;;;1.60;;
20122;SDS011;10222;50.848;4.336;2023-05-29T09:46:40;7.00;;;1.63;;
20122;SDS011;10222;50.848;4.336;2023-05-29T09:49:11;4.90;;;2.07;;
20122;SDS011;10222;50.848;4.336;2023-05-29T09:51:38;6.23;;;2.13;;
20122;SDS011;10222;50.848;4.336;2023-05-29T09:54:14;7.70;;;1.77;;
20122;SDS011;10222;50.848;4.336;2023-05-29T09:56:41;5.30;;;2.03;;
20122;SDS011;10222;50.848;4.336;2023-05-29T09:59:09;4.80;;;1.80;;
20122;SDS011;10222;50.848;4.336;2023-05-29T10:01:36;5.70;;;1.60;;
20122;SDS011;10222;50.848;4.336;2023-05-29T10:04:04;7.80;;;2.00;;
20122;SDS011;10222;50.848;4.336;2023-05-29T10:06:30;14.73;;;7.10;;
20122;SDS011;10222;50.848;4.336;2023-05-29T10:08:57;17.07;;;7.37;;
20122;SDS011;10222;50.848;4.336;2023-05-29T10:11:26;5.97;;;1.27;;
20122;SDS011;10222;50.848;4.336;2023-05-29T10:13:52;4.33;;;1.67;;
20122;SDS011;10222;50.848;4.336;2023-05-29T10:16:20;7.17;;;2.33;;
20122;SDS011;10222;50.848;4.336;2023-05-29T10:18:53;8.57;;;1.90;;
20122;SDS011;10222;50.848;4.336;2023-05-29T10:21:23;11.03;;;2.87;;
20122;SDS011;10222;50.848;4.336;2023-05-29T10:23:50;5.03;;;1.37;;
20122;SDS011;10222;50.848;4.336;2023-05-29T10:26:21;5.23;;;1.90;;
20122;SDS011;10222;50.848;4.336;2023-05-29T10:31:44;6.33;;;1.50;;
20122;SDS011;10222;50.848;4.336;2023-05-29T10:34:20;7.50;;;2.00;;
20122;SDS011;10222;50.848;4.336;2023-05-29T10:36:51;6.00;;;1.53;;
20122;SDS011;10222;50.848;4.336;2023-05-29T10:39:20;13.40;;;1.90;;
20122;SDS011;10222;50.848;4.336;2023-05-29T10:41:46;3.20;;;1.40;;
20122;SDS011;10222;50.848;4.336;2023-05-29T10:47:01;4.73;;;1.70;;
20122;SDS011;10222;50.848;4.336;2023-05-29T10:49:28;7.03;;;1.70;;
20122;SDS011;10222;50.848;4.336;2023-05-29T10:51:55;6.67;;;1.73;;
20122;SDS011;10222;50.848;4.336;2023-05-29T10:54:24;6.87;;;1.30;;
20122;SDS011;10222;50.848;4.336;2023-05-29T10:56:51;3.10;;;1.33;;
20122;SDS011;10222;50.848;4.336;2023-05-29T10:59:18;8.30;;;1.67;;
20122;SDS011;10222;50.848;4.336;2023-05-29T11:01:44;3.70;;;1.60;;
20122;SDS011;10222;50.848;4.336;2023-05-29T11:06:45;3.50;;;1.27;;
20122;SDS011;10222;50.848;4.336;2023-05-29T11:12:11;4.67;;;1.20;;
20122;SDS011;10222;50.848;4.336;2023-05-29T11:14:45;4.33;;;1.33;;
20122;SDS011;10222;50.848;4.336;2023-05-29T11:20:28;3.03;;;1.47;;
20122;SDS011;10222;50.848;4.336;2023-05-29T11:23:05;4.80;;;1.20;;
20122;SDS011;10222;50.848;4.336;2023-05-29T11:25:34;3.23;;;1.50;;
20122;SDS011;10222;50.848;4.336;2023-05-29T11:28:00;5.40;;;1.60;;
20122;SDS011;10222;50.848;4.336;2023-05-29T11:30:28;4.77;;;1.47;;
20122;SDS011;10222;50.848;4.336;2023-05-29T11:32:54;4.57;;;1.33;;
20122;SDS011;10222;50.848;4.336;2023-05-29T11:35:26;6.43;;;1.50;;
20122;SDS011;10222;50.848;4.336;2023-05-29T11:37:52;3.67;;;1.37;;
20122;SDS011;10222;50.848;4.336;2023-05-29T11:40:19;5.10;;;1.53;;
20122;SDS011;10222;50.848;4.336;2023-05-29T11:42:46;2.70;;;1.13;;
20122;SDS011;10222;50.848;4.336;2023-05-29T11:45:16;5.27;;;1.30;;
20122;SDS011;10222;50.848;4.336;2023-05-29T11:50:20;9.67;;;1.53;;
20122;SDS011;10222;50.848;4.336;2023-05-29T11:52:47;3.80;;;1.30;;
20122;SDS011;10222;50.848;4.336;2023-05-29T11:55:13;3.83;;;1.30;;
20122;SDS011;10222;50.848;4.336;2023-05-29T11:57:39;2.70;;;1.30;;
20122;SDS011;10222;50.848;4.336;2023-05-29T12:00:05;7.93;;;1.43;;
20122;SDS011;10222;50.848;4.336;2023-05-29T12:02:35;5.87;;;1.37;;
20122;SDS011;10222;50.848;4.336;2023-05-29T12:05:02;6.70;;;1.63;;
20122;SDS011;10222;50.848;4.336;2023-05-29T12:07:28;4.73;;;1.47;;
20122;SDS011;10222;50.848;4.336;2023-05-29T12:09:54;4.47;;;1.30;;
20122;SDS011;10222;50.848;4.336;2023-05-29T12:12:23;4.83;;;1.43;;
20122;SDS011;10222;50.848;4.336;2023-05-29T12:14:52;3.77;;;1.30;;
20122;SDS011;10222;50.848;4.336;2023-05-29T12:17:19;7.17;;;1.37;;
20122;SDS011;10222;50.848;4.336;2023-05-29T12:19:45;5.40;;;1.27;;
20122;SDS011;10222;50.848;4.336;2023-05-29T12:22:11;11.07;;;1.83;;
20122;SDS011;10222;50.848;4.336;2023-05-29T12:24:37;5.30;;;1.23;;
20122;SDS011;10222;50.848;4.336;2023-05-29T12:27:04;3.27;;;1.60;;
20122;SDS011;10222;50.848;4.336;2023-05-29T12:29:35;3.80;;;1.53;;
20122;SDS011;10222;50.848;4.336;2023-05-29T12:32:01;3.67;;;1.30;;
20122;SDS011;10222;50.848;4.336;2023-05-29T12:34:33;4.75;;;1.30;;
20122;SDS011;10222;50.848;4.336;2023-05-29T12:37:08;5.55;;;1.58;;
20122;SDS011;10222;50.848;4.336;2023-05-29T12:39:36;6.57;;;1.60;;
20122;SDS011;10222;50.848;4.336;2023-05-29T12:44:33;4.57;;;1.17;;
20122;SDS011;10222;50.848;4.336;2023-05-29T12:46:59;4.32;;;1.58;;
20122;SDS011;10222;50.848;4.336;2023-05-29T12:49:28;6.60;;;1.30;;
20122;SDS011;10222;50.848;4.336;2023-05-29T12:52:04;6.85;;;1.55;;
20122;SDS011;10222;50.848;4.336;2023-05-29T12:54:30;3.63;;;1.40;;
20122;SDS011;10222;50.848;4.336;2023-05-29T12:56:56;2.67;;;1.30;;
20122;SDS011;10222;50.848;4.336;2023-05-29T12:59:25;5.20;;;1.30;;
20122;SDS011;10222;50.848;4.336;2023-05-29T13:01:51;6.40;;;1.50;;
20122;SDS011;10222;50.848;4.336;2023-05-29T13:04:17;5.72;;;1.40;;
20122;SDS011;10222;50.848;4.336;2023-05-29T13:06:43;7.28;;;2.00;;
20122;SDS011;10222;50.848;4.336;2023-05-29T13:09:10;5.32;;;1.55;;
20122;SDS011;10222;50.848;4.336;2023-05-29T13:11:36;3.35;;;1.52;;
20122;SDS011;10222;50.848;4.336;2023-05-29T13:14:03;3.78;;;1.48;;
20122;SDS011;10222;50.848;4.336;2023-05-29T13:16:29;6.18;;;1.35;;
20122;SDS011;10222;50.848;4.336;2023-05-29T13:18:55;4.85;;;1.50;;
20122;SDS011;10222;50.848;4.336;2023-05-29T13:21:21;5.00;;;1.63;;
20122;SDS011;10222;50.848;4.336;2023-05-29T13:23:47;7.95;;;1.77;;
20122;SDS011;10222;50.848;4.336;2023-05-29T13:26:13;3.45;;;1.42;;
20122;SDS011;10222;50.848;4.336;2023-05-29T13:28:39;3.28;;;1.25;;
20122;SDS011;10222;50.848;4.336;2023-05-29T13:31:04;6.60;;;1.70;;
20122;SDS011;10222;50.848;4.336;2023-05-29T13:33:31;3.33;;;1.50;;
20122;SDS011;10222;50.848;4.336;2023-05-29T13:35:57;6.80;;;1.83;;
20122;SDS011;10222;50.848;4.336;2023-05-29T13:38:23;4.93;;;1.70;;
20122;SDS011;10222;50.848;4.336;2023-05-29T13:40:49;6.60;;;1.65;;
20122;SDS011;10222;50.848;4.336;2023-05-29T13:43:15;6.47;;;1.75;;
20122;SDS011;10222;50.848;4.336;2023-05-29T13:45:41;3.63;;;1.25;;
20122;SDS011;10222;50.848;4.336;2023-05-29T13:48:07;3.00;;;1.35;;
20122;SDS011;10222;50.848;4.336;2023-05-29T13:50:33;3.58;;;1.30;;
20122;SDS011;10222;50.848;4.336;2023-05-29T13:53:00;3.88;;;1.10;;
20122;SDS011;10222;50.848;4.336;2023-05-29T13:55:26;3.85;;;1.55;;
20122;SDS011;10222;50.848;4.336;2023-05-29T13:57:52;5.07;;;1.40;;
20122;SDS011;10222;50.848;4.336;2023-05-29T14:00:18;3.22;;;1.30;;
20122;SDS011;10222;50.848;4.336;2023-05-29T14:02:44;6.70;;;1.40;;
20122;SDS011;10222;50.848;4.336;2023-05-29T14:05:10;5.35;;;1.60;;
20122;SDS011;10222;50.848;4.336;2023-05-29T14:07:36;4.57;;;1.27;;
20122;SDS011;10222;50.848;4.336;2023-05-29T14:10:02;4.40;;;1.30;;
20122;SDS011;10222;50.848;4.336;2023-05-29T14:12:28;28.17;;;5.57;;
20122;SDS011;10222;50.848;4.336;2023-05-29T14:14:54;16.42;;;4.28;;
20122;SDS011;10222;50.848;4.336;2023-05-29T14:17:20;8.55;;;1.77;;
20122;SDS011;10222;50.848;4.336;2023-05-29T14:19:46;5.32;;;1.35;;
20122;SDS011;10222;50.848;4.336;2023-05-29T14:22:12;3.78;;;1.67;;
20122;SDS011;10222;50.848;4.336;2023-05-29T14:24:38;6.43;;;1.73;;
20122;SDS011;10222;50.848;4.336;2023-05-29T14:27:05;10.60;;;2.92;;
20122;SDS011;10222;50.848;4.336;2023-05-29T14:29:31;8.10;;;2.45;;
20122;SDS011;10222;50.848;4.336;2023-05-29T14:31:57;7.07;;;2.30;;
20122;SDS011;10222;50.848;4.336;2023-05-29T14:34:23;9.15;;;2.13;;
20122;SDS011;10222;50.848;4.336;2023-05-29T14:36:49;5.63;;;2.03;;
20122;SDS011;10222;50.848;4.336;2023-05-29T14:39:15;8.00;;;1.55;;
20122;SDS011;10222;50.848;4.336;2023-05-29T14:41:41;4.22;;;1.50;;
20122;SDS011;10222;50.848;4.336;2023-05-29T14:44:07;5.72;;;1.92;;
20122;SDS011;10222;50.848;4.336;2023-05-29T14:46:33;6.78;;;2.10;;
20122;SDS011;10222;50.848;4.336;2023-05-29T14:48:59;5.97;;;2.15;;
20122;SDS011;10222;50.848;4.336;2023-05-29T14:51:26;6.00;;;1.75;;
20122;SDS011;10222;50.848;4.336;2023-05-29T14:53:52;4.20;;;1.80;;
20122;SDS011;10222;50.848;4.336;2023-05-29T14:56:18;7.05;;;1.75;;
20122;SDS011;10222;50.848;4.336;2023-05-29T14:58:45;7.63;;;1.40;;
20122;SDS011;10222;50.848;4.336;2023-05-29T15:01:13;13.20;;;8.27;;
20122;SDS011;10222;50.848;4.336;2023-05-29T15:03:39;11.15;;;4.00;;
20122;SDS011;10222;50.848;4.336;2023-05-29T15:06:05;7.93;;;2.05;;
20122;SDS011;10222;50.848;4.336;2023-05-29T15:08:34;10.25;;;3.58;;
20122;SDS011;10222;50.848;4.336;2023-05-29T15:11:01;10.18;;;4.22;;
20122;SDS011;10222;50.848;4.336;2023-05-29T15:13:30;6.72;;;3.70;;